createdAt,value
2023-03-24T00:01:27.599Z,10.98
2023-03-24T00:06:25.875Z,11.03
2023-03-24T00:11:29.391Z,11.00
2023-03-24T00:16:28.813Z,10.77
2023-03-24T00:21:28.336Z,10.63
2023-03-24T00:26:29.497Z,10.50
2023-03-24T00:31:26.759Z,10.53
2023-03-24T00:36:23.978Z,10.45
2023-03-24T00:41:21.056Z,10.50
2023-03-24T00:46:35.850Z,10.45
2023-03-24T00:51:35.863Z,10.65
2023-03-24T00:56:40.693Z,10.88
2023-03-24T01:01:40.472Z,10.83
2023-03-24T01:06:42.126Z,10.99
2023-03-24T01:11:40.742Z,11.06
2023-03-24T01:16:41.265Z,10.83
2023-03-24T01:21:41.642Z,10.72
2023-03-24T01:26:41.736Z,10.16
2023-03-24T01:31:41.861Z,10.33
2023-03-24T01:36:43.131Z,10.39
2023-03-24T01:41:42.485Z,10.62
2023-03-24T01:46:40.488Z,10.42
2023-03-24T01:51:42.479Z,10.35
2023-03-24T01:56:44.608Z,10.35
2023-03-24T02:01:44.741Z,10.59
2023-03-24T02:07:04.560Z,10.56
2023-03-24T02:12:02.571Z,10.60
2023-03-24T02:17:18.778Z,10.40
2023-03-24T02:22:38.486Z,10.38
2023-03-24T02:27:49.422Z,10.30
2023-03-24T02:33:04.183Z,10.21
2023-03-24T02:38:15.924Z,10.27
2023-03-24T02:43:33.873Z,10.49
2023-03-24T02:48:36.583Z,10.11
2023-03-24T02:53:38.958Z,10.17
2023-03-24T02:58:54.006Z,9.86
2023-03-24T03:03:53.966Z,9.95
2023-03-24T03:08:56.872Z,9.91
2023-03-24T03:13:59.741Z,9.84
2023-03-24T03:18:59.469Z,9.66
2023-03-24T03:23:58.961Z,9.81
2023-03-24T03:29:01.228Z,9.62
2023-03-24T03:34:06.815Z,9.68
2023-03-24T03:39:09.214Z,9.79
2023-03-24T03:44:09.327Z,9.81
2023-03-24T03:49:09.770Z,10.04
2023-03-24T03:54:13.019Z,9.90
2023-03-24T03:59:26.570Z,9.84
2023-03-24T04:04:53.210Z,9.75
2023-03-24T04:10:15.517Z,9.66
2023-03-24T04:15:21.439Z,9.89
2023-03-24T04:20:47.038Z,10.26
2023-03-24T04:25:49.380Z,10.58
2023-03-24T04:30:51.930Z,10.17
2023-03-24T04:35:55.311Z,9.81
2023-03-24T04:41:00.854Z,9.81
2023-03-24T04:45:58.592Z,9.75
2023-03-24T04:51:07.414Z,9.85
2023-03-24T04:56:29.086Z,10.09
2023-03-24T05:01:49.422Z,9.93
2023-03-24T05:07:09.300Z,9.83
2023-03-24T05:12:09.484Z,9.79
2023-03-24T05:17:26.140Z,10.08
2023-03-24T05:22:23.250Z,9.82
2023-03-24T05:27:20.790Z,10.02
2023-03-24T05:32:20.467Z,10.06
2023-03-24T05:37:18.990Z,9.90
2023-03-24T05:42:20.218Z,9.95
2023-03-24T05:47:19.848Z,10.10
2023-03-24T05:52:20.431Z,10.18
2023-03-24T05:57:22.688Z,10.59
2023-03-24T06:02:40.664Z,10.48
2023-03-24T06:07:58.875Z,11.04
2023-03-24T06:13:13.876Z,11.29
2023-03-24T06:18:17.102Z,11.19
2023-03-24T06:23:14.964Z,11.50
2023-03-24T06:28:33.965Z,11.08
2023-03-24T06:33:42.246Z,11.08
2023-03-24T06:38:42.845Z,11.14
2023-03-24T06:43:49.963Z,10.96
2023-03-24T06:48:57.579Z,10.79
2023-03-24T06:54:11.229Z,11.00
2023-03-24T06:59:42.266Z,11.21
2023-03-24T07:04:43.538Z,11.13
2023-03-24T07:09:58.126Z,10.94
2023-03-24T07:15:00.785Z,11.29
2023-03-24T07:20:04.730Z,11.24
2023-03-24T07:25:33.257Z,11.55
2023-03-24T07:31:31.563Z,11.69
2023-03-24T07:37:23.411Z,11.91
2023-03-24T07:42:19.278Z,12.19
2023-03-24T07:47:46.311Z,12.41
2023-03-24T07:52:54.275Z,12.49
2023-03-24T08:04:21.274Z,13.43
2023-03-24T08:09:51.040Z,13.60
2023-03-24T08:14:54.077Z,13.58
2023-03-24T08:20:00.740Z,13.87
2023-03-24T08:25:05.900Z,14.09
2023-03-24T08:30:20.503Z,14.42
2023-03-24T08:35:24.214Z,14.44
2023-03-24T08:40:33.627Z,14.60
2023-03-24T08:45:41.843Z,14.81
2023-03-24T08:50:46.891Z,15.00
2023-03-24T08:55:58.792Z,15.17
2023-03-24T09:01:01.840Z,15.23
2023-03-24T09:06:03.379Z,15.28
2023-03-24T09:11:19.531Z,15.52
2023-03-24T09:16:36.444Z,15.65
2023-03-24T09:21:40.748Z,15.71
2023-03-24T09:26:53.923Z,16.15
2023-03-24T09:32:13.691Z,15.95
2023-03-24T09:37:19.392Z,16.20
2023-03-24T09:42:23.597Z,16.23
2023-03-24T09:47:32.949Z,16.46
2023-03-24T09:52:43.166Z,16.47
2023-03-24T09:58:01.001Z,16.51
2023-03-24T10:03:16.723Z,16.71
2023-03-24T10:08:19.918Z,16.77
2023-03-24T10:13:52.267Z,16.80
2023-03-24T10:19:01.738Z,17.05
2023-03-24T10:24:15.380Z,17.10
2023-03-24T10:29:22.083Z,17.39
2023-03-24T10:34:52.844Z,17.43
2023-03-24T10:40:03.207Z,17.61
2023-03-24T10:45:02.971Z,17.70
2023-03-24T10:50:15.413Z,17.63
2023-03-24T10:55:17.093Z,17.86
2023-03-24T11:00:33.816Z,17.84
2023-03-24T11:05:36.363Z,17.93
2023-03-24T11:10:44.583Z,18.12
2023-03-24T11:16:03.135Z,18.27
2023-03-24T11:21:08.230Z,18.37
2023-03-24T11:26:16.768Z,18.50
2023-03-24T11:31:30.133Z,18.37
2023-03-24T11:36:47.550Z,18.58
2023-03-24T11:41:54.675Z,18.58
2023-03-24T11:47:15.774Z,18.80
2023-03-24T11:52:21.849Z,18.89
2023-03-24T11:57:30.346Z,19.02
2023-03-24T12:02:42.411Z,18.99
2023-03-24T12:07:58.520Z,19.14
2023-03-24T12:13:00.806Z,19.20
2023-03-24T12:18:18.330Z,19.36
2023-03-24T12:23:25.480Z,19.51
2023-03-24T12:28:40.801Z,19.48
2023-03-24T12:34:01.842Z,19.59
2023-03-24T12:39:41.657Z,19.60
2023-03-24T12:45:09.344Z,19.74
2023-03-24T12:50:34.724Z,19.81
2023-03-24T12:56:06.917Z,19.40
2023-03-24T13:01:38.471Z,19.31
2023-03-24T13:07:05.379Z,19.64
2023-03-24T13:12:28.623Z,19.72
2023-03-24T13:17:59.281Z,19.57
2023-03-24T13:23:13.606Z,19.54
2023-03-24T13:33:55.999Z,19.77
2023-03-24T13:39:24.098Z,20.12
2023-03-24T13:44:58.897Z,19.88
2023-03-24T13:50:45.306Z,19.73
2023-03-24T13:56:31.641Z,19.75
2023-03-24T14:01:59.484Z,19.76
2023-03-24T14:07:48.568Z,20.26
2023-03-24T14:12:52.716Z,20.07
2023-03-24T14:17:54.800Z,20.11
2023-03-24T14:22:59.112Z,19.84
2023-03-24T14:28:25.909Z,19.79
2023-03-24T14:33:38.515Z,19.69
2023-03-24T14:38:51.034Z,19.62
2023-03-24T14:43:58.642Z,19.58
2023-03-24T14:49:06.940Z,19.69
2023-03-24T14:54:06.494Z,19.64
2023-03-24T14:59:18.306Z,19.81
2023-03-24T15:04:39.013Z,20.00
2023-03-24T15:09:38.658Z,19.87
2023-03-24T15:14:39.428Z,19.76
2023-03-24T15:19:46.870Z,19.71
2023-03-24T15:24:54.816Z,19.63
2023-03-24T15:30:02.128Z,19.59
2023-03-24T15:35:00.806Z,19.73
2023-03-24T15:40:24.171Z,19.77
2023-03-24T15:45:27.802Z,19.67
2023-03-24T15:50:33.829Z,19.57
2023-03-24T15:55:37.879Z,19.41
2023-03-24T16:00:47.098Z,19.30
2023-03-24T16:06:06.100Z,19.19
2023-03-24T16:11:10.402Z,19.03
2023-03-24T16:16:37.415Z,18.93
2023-03-24T16:22:24.470Z,18.84
2023-03-24T16:27:46.070Z,18.80
2023-03-24T16:33:05.781Z,18.75
2023-03-24T16:38:08.049Z,18.69
2023-03-24T16:43:07.236Z,18.63
2023-03-24T16:48:06.857Z,18.62
2023-03-24T16:53:09.388Z,18.58
2023-03-24T16:58:09.928Z,18.55
2023-03-24T17:03:15.462Z,18.52
2023-03-24T17:08:28.214Z,18.49
2023-03-24T17:13:26.118Z,18.44
2023-03-24T17:24:00.708Z,18.41
2023-03-24T17:29:04.088Z,18.46
2023-03-24T17:34:21.561Z,18.41
2023-03-24T17:39:23.942Z,18.38
2023-03-24T17:44:28.456Z,18.27
2023-03-24T17:49:38.639Z,18.27
2023-03-24T17:54:49.295Z,18.22
2023-03-24T17:59:46.421Z,18.25
2023-03-24T18:04:46.300Z,18.23
2023-03-24T18:09:45.632Z,18.22
2023-03-24T18:14:53.018Z,18.21
2023-03-24T18:19:52.456Z,18.12
2023-03-24T18:24:51.588Z,18.25
2023-03-24T18:29:50.706Z,18.14
2023-03-24T18:34:52.539Z,18.09
2023-03-24T18:39:50.296Z,17.98
2023-03-24T18:44:50.150Z,17.95
2023-03-24T18:49:51.238Z,18.04
2023-03-24T18:54:49.087Z,17.97
2023-03-24T18:59:47.014Z,17.92
2023-03-24T19:04:45.932Z,17.97
2023-03-24T19:09:44.893Z,17.90
2023-03-24T19:14:43.026Z,17.91
2023-03-24T19:19:43.099Z,17.86
2023-03-24T19:24:41.161Z,17.82
2023-03-24T19:34:57.581Z,17.89
2023-03-24T19:39:59.078Z,17.78
2023-03-24T19:44:58.774Z,17.44
2023-03-24T19:49:56.662Z,17.59
2023-03-24T19:54:55.143Z,17.62
2023-03-24T19:59:52.016Z,17.57
2023-03-24T20:04:49.006Z,17.54
2023-03-24T20:09:46.686Z,17.68
2023-03-24T20:14:44.548Z,17.33
2023-03-24T20:19:41.432Z,17.22
2023-03-24T20:24:38.466Z,17.10
2023-03-24T20:29:36.263Z,17.25
2023-03-24T20:34:33.400Z,17.09
2023-03-24T20:39:32.621Z,17.21
2023-03-24T20:44:32.598Z,17.04
2023-03-24T20:49:30.360Z,16.82
2023-03-24T20:54:27.336Z,16.58
2023-03-24T20:59:24.462Z,16.97
2023-03-24T21:04:21.427Z,16.91
2023-03-24T21:09:21.881Z,16.53
2023-03-24T21:14:19.788Z,16.80
2023-03-24T21:19:20.705Z,16.71
2023-03-24T21:24:18.598Z,16.53
2023-03-24T21:29:15.402Z,16.57
2023-03-24T21:34:12.425Z,16.32
2023-03-24T21:39:11.435Z,16.36
2023-03-24T21:44:09.372Z,16.21
2023-03-24T21:49:06.380Z,16.36
2023-03-24T21:54:05.717Z,16.35
2023-03-24T21:59:04.822Z,16.37
2023-03-24T22:04:02.887Z,16.34
2023-03-24T22:09:06.025Z,16.53
2023-03-24T22:14:06.395Z,16.52
2023-03-24T22:19:04.124Z,16.53
2023-03-24T22:24:01.020Z,16.39
2023-03-24T22:28:59.305Z,16.27
2023-03-24T22:33:56.769Z,16.27
2023-03-24T22:38:57.897Z,16.25
2023-03-24T22:43:56.848Z,16.21
2023-03-24T22:48:53.775Z,16.12
2023-03-24T22:53:50.872Z,15.96
2023-03-24T22:58:51.569Z,15.89
2023-03-24T23:03:50.914Z,15.92
2023-03-24T23:08:48.926Z,15.99
2023-03-24T23:13:49.776Z,16.01
2023-03-24T23:18:47.445Z,15.99
2023-03-24T23:23:51.885Z,15.82
2023-03-24T23:28:51.623Z,15.86
2023-03-24T23:33:52.769Z,15.82
2023-03-24T23:38:54.030Z,15.79
2023-03-24T23:43:51.305Z,15.85
2023-03-24T23:48:48.156Z,15.84
2023-03-24T23:53:48.727Z,15.63
2023-03-24T23:58:45.649Z,15.53
